罗盘
风向 的 风向 的 风向 到 风向 200°
风: 9 kt, 3 beaufort

添加一条跑道以查看侧风和逆风信息。

添置 跑道
0 6.000 12.000 18.000 24.000 30.000
SCT 1.200 ft
BKN 17.000 ft
BKN 23.000 ft
METAR CYOO 271923Z AUTO 20009KT 170V230 9SM SCT012 BKN170 BKN230 20/17 A2970 RMK SLP058 DENSITY ALT 1400FT

METAR Stouffville Airport

Stouffville Airport是Whitchurch–Stouffville,加拿大中的小机场。 视场标高为972 ft。

这份报告是针对2022年5月27日 3:23 下午, 当地时间在Toronto/Oshawa Executive Airport进行的。

机场观察

风向为200°,速度为9 kt。 风向在170°和230°之间变化。

可见度为9 mi。

有疏云,零星散落的云朵在1.200 ft的高度, 碎云在17.000 ft的高度 和 碎云在23.000 ft的高度。 破损或更高的上限为17.000 ft。

温度和风寒是68 °F。 露点为63 °F,相对湿度为83%。 海平面上的气压为29,71 inHg (QNH)。

白天

今天,太阳从5:39 上午升起,在8:48 下午降落。 这适用于Stouffville Airport,世界夏令时可能有所不同。 当地时间与世界标准时间之间的时差为-4 小时。 夏令时目前正在进行中。

公司介绍

我们没有关于这个机场的公司信息。

体会

到Vliegles.nl去找飞行课程,跳伞和其他飞行体验。 浏览页面,了解Stouffville Airport附近所有可用的活动。 你也可以使用搜索功能来寻找你所在地附近的特定飞行课程、跳伞或其他飞行体验。

您会帮助我们保持Metar-Taf.com正常运行吗?
您的贡献有助于网站的进一步开发并支付费用。

没有更多广告

您是捐款5美元还是更多?然后,我们将永远不会再向您展示广告,这是我们永恒的感谢!
捐赠前先登录

乌云

1.200 ft SCT 疏云,零星散落的云朵
17.000 ft BKN 碎云
23.000 ft BKN 碎云

温度 & 天气

温度 68 °F
露点 63 °F
相对湿度 83%
Kp-index 3  

评论

SLP058海平面压力为29,70 inHg (29,70 inHg)
DENSITY ALT 1400FT

公司介绍

新增公司

下载我们的应用程序

在您的手机和平板电脑上轻松访问所有航空天气。
有许多网站上没有的功能,如离线支持和个人机场列表。

Studio Eveline

Benalmádena
España

我们和第三方通过cookies跟踪您在我们网站上的上网行为。如果您继续,我们认为您同意我们的cookie政策。 了解更多